Time;durP1;ratioP1;P1;durP2;ratioP2;P2;SDS_P1;SDS_P2;PMS_P1;PMS_P2;Temp;Humidity;BMP_temperature;BMP_pressure;BME280_temperature;BME280_humidity;BME280_pressure;Samples;Min_cycle;Max_cycle;Signal;HPM_P1;HPM_P2
2021/12/30 00:00:58;;;;;;;;;0.00;0.00;;;;;;;;5003279;28;45654;-67
2021/12/30 00:03:23;;;;;;;;;0.00;0.00;;;;;;;;5016589;28;47455;-67
2021/12/30 00:05:49;;;;;;;;;1.00;1.00;;;;;;;;5021112;28;45385;-66
2021/12/30 00:08:14;;;;;;;;;0.00;0.00;;;;;;;;5019021;28;45365;-65
2021/12/30 00:10:40;;;;;;;;;0.00;0.00;;;;;;;;5023276;28;45287;-66
2021/12/30 00:13:06;;;;;;;;;0.67;0.67;;;;;;;;5005968;28;47443;-66
2021/12/30 00:15:32;;;;;;;;;1.00;1.00;;;;;;;;5026090;28;45406;-66
2021/12/30 00:17:57;;;;;;;;;1.00;1.00;;;;;;;;5023601;28;45348;-67
2021/12/30 00:20:22;;;;;;;;;0.67;0.67;;;;;;;;5026406;28;45280;-66
2021/12/30 00:22:48;;;;;;;;;0.00;0.00;;;;;;;;5001594;28;47078;-67
2021/12/30 00:25:13;;;;;;;;;0.67;0.67;;;;;;;;5025780;28;45196;-66
2021/12/30 00:27:39;;;;;;;;;2.00;0.00;;;;;;;;5018375;28;45148;-66
2021/12/30 00:30:06;;;;;;;;;0.67;0.67;;;;;;;;5026316;28;45240;-66
2021/12/30 00:32:32;;;;;;;;;0.00;0.00;;;;;;;;5007170;28;48427;-66
2021/12/30 00:34:57;;;;;;;;;2.33;0.67;;;;;;;;5025527;28;45302;-66
2021/12/30 00:37:22;;;;;;;;;0.33;0.33;;;;;;;;5019385;28;45394;-66
2021/12/30 00:39:47;;;;;;;;;0.00;0.00;;;;;;;;5022564;28;45239;-67
2021/12/30 00:42:13;;;;;;;;;1.00;1.00;;;;;;;;5019271;28;45729;-66
2021/12/30 00:44:38;;;;;;;;;1.00;1.00;;;;;;;;5025464;28;45408;-67
2021/12/30 00:47:03;;;;;;;;;0.00;0.00;;;;;;;;5007341;28;45528;-66
2021/12/30 00:49:28;;;;;;;;;0.00;0.00;;;;;;;;5025687;28;45402;-66
2021/12/30 00:51:54;;;;;;;;;1.00;1.00;;;;;;;;5018941;28;45588;-66
2021/12/30 00:54:19;;;;;;;;;1.00;1.00;;;;;;;;5025305;28;45357;-66
2021/12/30 00:56:45;;;;;;;;;0.00;0.00;;;;;;;;5022082;28;45338;-66
2021/12/30 00:59:10;;;;;;;;;0.00;0.00;;;;;;;;5025127;28;45864;-66
2021/12/30 01:01:36;;;;;;;;;0.00;0.00;;;;;;;;5020258;28;46588;-66
2021/12/30 01:04:01;;;;;;;;;0.00;0.00;;;;;;;;5019974;28;44716;-66
2021/12/30 01:06:28;;;;;;;;;0.00;0.00;;;;;;;;5021459;28;45244;-67
2021/12/30 01:08:53;;;;;;;;;0.67;0.67;;;;;;;;5022072;28;45326;-66
2021/12/30 01:11:22;;;;;;;;;2.00;0.33;;;;;;;;5022285;28;45687;-67
2021/12/30 01:13:55;;;;;;;;;0.33;0.33;;;;;;;;5022933;28;45283;-67
2021/12/30 01:16:23;;;;;;;;;1.00;1.00;;;;;;;;5022685;28;46294;-67
2021/12/30 01:19:22;;;;;;;;;1.00;1.00;;;;;;;;5023806;28;45319;-66
2021/12/30 01:21:49;;;;;;;;;0.00;0.00;;;;;;;;5022145;28;46108;-67
2021/12/30 01:24:14;;;;;;;;;1.00;1.00;;;;;;;;5016728;28;45228;-66
2021/12/30 01:26:40;;;;;;;;;1.00;1.00;;;;;;;;5022691;28;45461;-66
2021/12/30 01:29:05;;;;;;;;;0.00;0.00;;;;;;;;5020449;28;45307;-66
2021/12/30 01:31:30;;;;;;;;;1.00;1.00;;;;;;;;5020797;28;46525;-67
2021/12/30 01:33:55;;;;;;;;;0.00;0.00;;;;;;;;5022316;28;45388;-66
2021/12/30 01:36:21;;;;;;;;;1.00;1.00;;;;;;;;5021569;28;45498;-67
2021/12/30 01:38:48;;;;;;;;;1.00;0.67;;;;;;;;5007354;28;45460;-66
2021/12/30 01:41:13;;;;;;;;;2.00;2.00;;;;;;;;5022410;28;45489;-66
2021/12/30 01:43:39;;;;;;;;;2.00;2.00;;;;;;;;5006537;28;45781;-67
2021/12/30 01:46:06;;;;;;;;;1.00;1.00;;;;;;;;5022526;28;45385;-66
2021/12/30 01:48:32;;;;;;;;;1.00;1.00;;;;;;;;5006746;28;45462;-67
2021/12/30 01:50:57;;;;;;;;;1.00;1.00;;;;;;;;5022539;28;46217;-67
2021/12/30 01:53:22;;;;;;;;;1.00;1.00;;;;;;;;5019679;28;45430;-66
2021/12/30 01:55:49;;;;;;;;;1.00;1.00;;;;;;;;5023505;28;45343;-66
2021/12/30 01:58:15;;;;;;;;;1.33;1.00;;;;;;;;5019087;28;45306;-67
2021/12/30 02:00:42;;;;;;;;;2.67;2.00;;;;;;;;5024236;28;45279;-66
2021/12/30 02:03:09;;;;;;;;;4.00;1.00;;;;;;;;5017537;28;45319;-67
2021/12/30 02:05:34;;;;;;;;;1.00;0.00;;;;;;;;5024049;28;45335;-66
2021/12/30 02:07:59;;;;;;;;;0.33;0.33;;;;;;;;4999930;28;45500;-66
2021/12/30 02:10:25;;;;;;;;;2.00;1.00;;;;;;;;5021666;28;46599;-66
2021/12/30 02:12:50;;;;;;;;;1.00;1.00;;;;;;;;5019520;28;45482;-67
2021/12/30 02:15:16;;;;;;;;;0.00;0.00;;;;;;;;5021527;28;45270;-67
2021/12/30 02:17:42;;;;;;;;;1.00;1.00;;;;;;;;5020987;28;45413;-65
2021/12/30 02:20:12;;;;;;;;;2.00;0.67;;;;;;;;5005738;28;47226;-65
2021/12/30 02:22:37;;;;;;;;;2.00;1.00;;;;;;;;5009543;28;45433;-65
2021/12/30 02:25:04;;;;;;;;;1.00;1.00;;;;;;;;5022470;28;45291;-66
2021/12/30 02:27:29;;;;;;;;;1.00;1.00;;;;;;;;5005607;28;45371;-66
2021/12/30 02:29:54;;;;;;;;;0.33;0.33;;;;;;;;5023721;28;45372;-66
2021/12/30 02:32:21;;;;;;;;;0.00;0.00;;;;;;;;5018244;28;45436;-67
2021/12/30 02:34:46;;;;;;;;;0.00;0.00;;;;;;;;5022730;28;45438;-66
2021/12/30 02:37:14;;;;;;;;;1.00;1.00;;;;;;;;5000142;28;45563;-66
2021/12/30 02:39:42;;;;;;;;;0.00;0.00;;;;;;;;5005720;28;47323;-66
2021/12/30 02:42:07;;;;;;;;;1.00;0.67;;;;;;;;5017315;28;45323;-66
2021/12/30 02:44:32;;;;;;;;;0.33;0.33;;;;;;;;5022456;28;45546;-66
2021/12/30 02:46:57;;;;;;;;;1.33;1.00;;;;;;;;5017543;28;45537;-66
2021/12/30 02:49:23;;;;;;;;;2.00;0.33;;;;;;;;5023371;28;46494;-67
2021/12/30 02:51:48;;;;;;;;;0.33;0.33;;;;;;;;5015983;28;45553;-66
2021/12/30 02:54:13;;;;;;;;;0.00;0.00;;;;;;;;5022383;28;45444;-66
2021/12/30 02:56:41;;;;;;;;;1.00;1.00;;;;;;;;5019534;28;45467;-67
2021/12/30 02:59:06;;;;;;;;;0.00;0.00;;;;;;;;5017864;28;48275;-67
2021/12/30 03:01:32;;;;;;;;;0.00;0.00;;;;;;;;5019368;28;45537;-67
2021/12/30 03:04:00;;;;;;;;;0.00;0.00;;;;;;;;5019043;28;45470;-66
2021/12/30 03:06:25;;;;;;;;;0.00;0.00;;;;;;;;5019455;28;45548;-67
2021/12/30 03:08:51;;;;;;;;;0.00;0.00;;;;;;;;5020642;28;46417;-66
2021/12/30 03:11:17;;;;;;;;;1.00;1.00;;;;;;;;5021339;28;45329;-66
2021/12/30 03:13:44;;;;;;;;;0.00;0.00;;;;;;;;5021391;28;45299;-67
2021/12/30 03:16:12;;;;;;;;;2.00;0.33;;;;;;;;5021573;28;45394;-67
2021/12/30 03:18:37;;;;;;;;;0.00;0.00;;;;;;;;5019219;28;45378;-66
2021/12/30 03:21:04;;;;;;;;;0.00;0.00;;;;;;;;5021435;28;45481;-66
2021/12/30 03:23:29;;;;;;;;;0.67;0.67;;;;;;;;5010313;28;45389;-67
2021/12/30 03:25:55;;;;;;;;;1.00;1.00;;;;;;;;5022194;28;45429;-67
2021/12/30 03:28:20;;;;;;;;;0.00;0.00;;;;;;;;5017522;28;46312;-67
2021/12/30 03:30:46;;;;;;;;;0.00;0.00;;;;;;;;5022890;28;45354;-67
2021/12/30 03:33:11;;;;;;;;;0.00;0.00;;;;;;;;5017882;28;45213;-66
2021/12/30 03:35:36;;;;;;;;;0.00;0.00;;;;;;;;5023381;28;45430;-68
2021/12/30 03:38:02;;;;;;;;;0.00;0.00;;;;;;;;5004391;28;47283;-67
2021/12/30 03:40:28;;;;;;;;;0.00;0.00;;;;;;;;5023065;28;45236;-67
2021/12/30 03:42:53;;;;;;;;;1.00;0.00;;;;;;;;5016562;28;45717;-67
2021/12/30 03:45:19;;;;;;;;;0.00;0.00;;;;;;;;5006090;28;45489;-67
2021/12/30 03:47:47;;;;;;;;;1.00;1.00;;;;;;;;5019883;28;45567;-67
2021/12/30 03:50:18;;;;;;;;;0.00;0.00;;;;;;;;5026233;28;45288;-67
2021/12/30 03:52:44;;;;;;;;;0.33;0.33;;;;;;;;5007897;28;45917;-67
2021/12/30 03:55:09;;;;;;;;;0.00;0.00;;;;;;;;5026827;28;45390;-67
2021/12/30 03:57:34;;;;;;;;;1.33;0.00;;;;;;;;5019649;28;46854;-67
2021/12/30 04:00:00;;;;;;;;;1.33;0.00;;;;;;;;5026267;28;45343;-67
2021/12/30 04:02:25;;;;;;;;;0.00;0.00;;;;;;;;5020602;28;45470;-67
2021/12/30 04:04:50;;;;;;;;;1.67;0.00;;;;;;;;5021031;28;45371;-67
2021/12/30 04:07:15;;;;;;;;;2.00;0.00;;;;;;;;5021322;28;46393;-67
2021/12/30 04:09:42;;;;;;;;;0.67;0.67;;;;;;;;5023111;28;45284;-67
2021/12/30 04:12:07;;;;;;;;;0.00;0.00;;;;;;;;5007734;28;45439;-67
2021/12/30 04:14:33;;;;;;;;;1.00;1.00;;;;;;;;5026464;28;45283;-67
2021/12/30 04:16:58;;;;;;;;;0.00;0.00;;;;;;;;5023437;28;46385;-67
2021/12/30 04:19:23;;;;;;;;;0.00;0.00;;;;;;;;5025806;28;45624;-67
2021/12/30 04:21:53;;;;;;;;;0.00;0.00;;;;;;;;5018204;28;45313;-67
2021/12/30 04:24:19;;;;;;;;;0.00;0.00;;;;;;;;5024917;28;45406;-67
2021/12/30 04:26:44;;;;;;;;;0.00;0.00;;;;;;;;5007114;28;48266;-67
2021/12/30 04:29:09;;;;;;;;;0.00;0.00;;;;;;;;5021361;28;45351;-67
2021/12/30 04:31:35;;;;;;;;;0.67;0.67;;;;;;;;5022522;28;45375;-67
2021/12/30 04:34:00;;;;;;;;;2.00;1.00;;;;;;;;5023837;28;45411;-67
2021/12/30 04:36:25;;;;;;;;;0.33;0.33;;;;;;;;5020929;28;47413;-67
2021/12/30 04:38:50;;;;;;;;;1.00;0.00;;;;;;;;5021001;28;45382;-67
2021/12/30 04:41:16;;;;;;;;;0.00;0.00;;;;;;;;5023648;28;45384;-67
2021/12/30 04:43:41;;;;;;;;;0.00;0.00;;;;;;;;5008048;28;45527;-67
2021/12/30 04:46:06;;;;;;;;;0.67;0.67;;;;;;;;5023316;28;45982;-67
2021/12/30 04:48:33;;;;;;;;;0.67;0.67;;;;;;;;5019382;28;46246;-67
2021/12/30 04:50:58;;;;;;;;;0.33;0.33;;;;;;;;5024023;28;45274;-67
2021/12/30 04:53:23;;;;;;;;;0.00;0.00;;;;;;;;5021063;28;45474;-67
2021/12/30 04:55:48;;;;;;;;;0.33;0.33;;;;;;;;5024414;28;45542;-67
2021/12/30 04:58:14;;;;;;;;;0.67;0.67;;;;;;;;5018838;28;45389;-67
2021/12/30 05:00:39;;;;;;;;;1.33;1.00;;;;;;;;5025439;28;45272;-67
2021/12/30 05:03:10;;;;;;;;;0.00;0.00;;;;;;;;5022168;28;45394;-67
2021/12/30 05:05:42;;;;;;;;;0.67;0.67;;;;;;;;5021709;28;47620;-67
2021/12/30 05:08:08;;;;;;;;;1.67;1.00;;;;;;;;5004670;28;45912;-67
2021/12/30 05:10:34;;;;;;;;;1.00;1.00;;;;;;;;5006712;28;45618;-67
2021/12/30 05:13:00;;;;;;;;;1.00;1.00;;;;;;;;5004535;28;45544;-67
2021/12/30 05:15:25;;;;;;;;;3.00;1.00;;;;;;;;5024879;28;46611;-67
2021/12/30 05:17:51;;;;;;;;;0.00;0.00;;;;;;;;5022340;28;45393;-67
2021/12/30 05:20:16;;;;;;;;;0.00;0.00;;;;;;;;5024740;28;45446;-67
2021/12/30 05:22:42;;;;;;;;;0.33;0.33;;;;;;;;5011915;28;45430;-67
2021/12/30 05:25:08;;;;;;;;;0.00;0.00;;;;;;;;5023760;28;45408;-67
2021/12/30 05:27:33;;;;;;;;;0.00;0.00;;;;;;;;5018221;28;45488;-67
2021/12/30 05:29:58;;;;;;;;;1.00;0.00;;;;;;;;5025125;28;45683;-67
2021/12/30 05:32:23;;;;;;;;;0.00;0.00;;;;;;;;5018647;28;45358;-69
2021/12/30 05:34:48;;;;;;;;;0.67;0.67;;;;;;;;5024307;28;46377;-68
2021/12/30 05:37:14;;;;;;;;;0.00;0.00;;;;;;;;5017986;28;45307;-67
2021/12/30 05:39:41;;;;;;;;;0.00;0.00;;;;;;;;5023158;28;45326;-67
2021/12/30 05:42:07;;;;;;;;;0.00;0.00;;;;;;;;5018697;28;45430;-67
2021/12/30 05:44:32;;;;;;;;;2.00;0.00;;;;;;;;5024509;28;45228;-67
2021/12/30 05:46:57;;;;;;;;;1.00;1.00;;;;;;;;5018049;28;45245;-67
2021/12/30 05:49:23;;;;;;;;;2.00;2.00;;;;;;;;5022779;28;45270;-67
2021/12/30 05:51:48;;;;;;;;;1.00;1.00;;;;;;;;5018567;28;45517;-67
2021/12/30 05:54:13;;;;;;;;;2.00;1.00;;;;;;;;5023821;28;46302;-67
2021/12/30 05:56:38;;;;;;;;;1.67;1.67;;;;;;;;5001810;28;45538;-67
2021/12/30 05:59:04;;;;;;;;;1.00;1.00;;;;;;;;5022498;28;45368;-68
2021/12/30 06:01:29;;;;;;;;;1.00;1.00;;;;;;;;5021429;28;45353;-68
2021/12/30 06:03:54;;;;;;;;;0.67;0.67;;;;;;;;5017404;28;46748;-68
2021/12/30 06:06:19;;;;;;;;;2.00;2.00;;;;;;;;5021823;28;45374;-68
2021/12/30 06:08:45;;;;;;;;;1.00;1.00;;;;;;;;5017495;28;45308;-67
2021/12/30 06:11:10;;;;;;;;;2.00;1.00;;;;;;;;5021494;28;45401;-68
2021/12/30 06:13:35;;;;;;;;;2.33;1.33;;;;;;;;5020947;28;46707;-68
2021/12/30 06:16:00;;;;;;;;;4.33;2.00;;;;;;;;5022155;28;45367;-68
2021/12/30 06:18:26;;;;;;;;;2.67;2.00;;;;;;;;5023062;28;45381;-68
2021/12/30 06:20:51;;;;;;;;;0.00;0.00;;;;;;;;5023682;28;45307;-67
2021/12/30 06:23:16;;;;;;;;;1.00;1.00;;;;;;;;5010053;28;46044;-68
2021/12/30 06:25:41;;;;;;;;;5.00;1.00;;;;;;;;5023629;28;45422;-68
2021/12/30 06:28:07;;;;;;;;;2.00;2.00;;;;;;;;5017615;28;45569;-68
2021/12/30 06:30:32;;;;;;;;;2.33;2.00;;;;;;;;5024326;28;45323;-68
2021/12/30 06:32:57;;;;;;;;;8.00;2.00;;;;;;;;5013399;28;48591;-68
2021/12/30 06:35:23;;;;;;;;;6.33;2.00;;;;;;;;5023607;28;45370;-68
2021/12/30 06:37:48;;;;;;;;;2.00;2.00;;;;;;;;5017224;28;45474;-68
2021/12/30 06:40:14;;;;;;;;;3.00;1.00;;;;;;;;5024285;28;45368;-67
2021/12/30 06:42:41;;;;;;;;;4.00;1.67;;;;;;;;4999526;28;47251;-68
2021/12/30 06:45:06;;;;;;;;;7.67;4.67;;;;;;;;5023225;28;45364;-68
2021/12/30 06:47:32;;;;;;;;;2.00;2.00;;;;;;;;5004970;28;45451;-68
2021/12/30 06:50:01;;;;;;;;;2.00;2.00;;;;;;;;5023643;28;45617;-68
2021/12/30 06:52:26;;;;;;;;;3.33;1.67;;;;;;;;5016979;28;46169;-67
2021/12/30 06:54:51;;;;;;;;;1.00;1.00;;;;;;;;5023189;28;45445;-68
2021/12/30 06:57:17;;;;;;;;;4.00;2.00;;;;;;;;4999411;28;45437;-67
2021/12/30 06:59:42;;;;;;;;;2.00;2.00;;;;;;;;5022529;28;45447;-68
2021/12/30 07:02:07;;;;;;;;;4.67;2.00;;;;;;;;5016338;28;46393;-68
2021/12/30 07:04:33;;;;;;;;;3.00;1.33;;;;;;;;5018013;28;45359;-68
2021/12/30 07:06:58;;;;;;;;;2.67;1.67;;;;;;;;5018252;28;45233;-67
2021/12/30 07:09:24;;;;;;;;;3.00;2.00;;;;;;;;5019518;28;45322;-67
2021/12/30 07:11:49;;;;;;;;;1.00;1.00;;;;;;;;5019413;28;45586;-68
2021/12/30 07:14:18;;;;;;;;;6.67;4.00;;;;;;;;5005007;28;45554;-67
2021/12/30 07:16:43;;;;;;;;;5.67;3.00;;;;;;;;5020777;28;45310;-68
2021/12/30 07:19:09;;;;;;;;;6.00;3.00;;;;;;;;5022813;28;45468;-68
2021/12/30 07:21:34;;;;;;;;;3.00;3.00;;;;;;;;5016659;28;48306;-68
2021/12/30 07:23:59;;;;;;;;;3.33;3.00;;;;;;;;5012349;28;45422;-68
2021/12/30 07:26:24;;;;;;;;;5.67;3.67;;;;;;;;5018919;28;45354;-68
2021/12/30 07:28:50;;;;;;;;;3.00;2.67;;;;;;;;5017330;28;46493;-69
2021/12/30 07:31:15;;;;;;;;;3.67;3.00;;;;;;;;5021405;28;45467;-68
2021/12/30 07:33:40;;;;;;;;;6.00;3.00;;;;;;;;5016474;28;45409;-68
2021/12/30 07:36:05;;;;;;;;;6.67;3.33;;;;;;;;5020382;28;46357;-68
2021/12/30 07:38:31;;;;;;;;;10.33;4.00;;;;;;;;5004811;28;45383;-68
2021/12/30 07:40:56;;;;;;;;;4.67;3.00;;;;;;;;5021352;28;45723;-68
2021/12/30 07:43:21;;;;;;;;;4.33;4.33;;;;;;;;5016746;28;45326;-67
2021/12/30 07:45:46;;;;;;;;;7.00;3.33;;;;;;;;5022090;28;45576;-68
2021/12/30 07:48:12;;;;;;;;;3.00;3.00;;;;;;;;5014543;28;45446;-68
2021/12/30 07:50:37;;;;;;;;;8.33;5.00;;;;;;;;5022028;28;45435;-68
2021/12/30 07:53:02;;;;;;;;;4.00;2.67;;;;;;;;5000856;28;45387;-68
2021/12/30 07:55:27;;;;;;;;;6.00;3.00;;;;;;;;5002801;28;45455;-68
2021/12/30 07:57:57;;;;;;;;;6.00;4.00;;;;;;;;5018612;28;45870;-68
2021/12/30 08:00:23;;;;;;;;;4.00;2.00;;;;;;;;5022370;28;46577;-68
2021/12/30 08:02:48;;;;;;;;;8.67;2.00;;;;;;;;5016441;28;45507;-68
2021/12/30 08:05:15;;;;;;;;;4.00;3.00;;;;;;;;5018099;28;45533;-68
2021/12/30 08:07:42;;;;;;;;;8.00;4.00;;;;;;;;5018954;28;45365;-68
2021/12/30 08:10:12;;;;;;;;;4.33;2.67;;;;;;;;5019235;28;45321;-68
2021/12/30 08:12:38;;;;;;;;;6.67;3.00;;;;;;;;5018332;28;45397;-69
2021/12/30 08:15:03;;;;;;;;;3.33;3.33;;;;;;;;5002785;28;45294;-68
2021/12/30 08:17:29;;;;;;;;;7.00;3.00;;;;;;;;5020052;28;45393;-69
2021/12/30 08:19:54;;;;;;;;;4.33;3.00;;;;;;;;5021868;28;45746;-68
2021/12/30 08:22:19;;;;;;;;;5.00;3.00;;;;;;;;5012225;28;45665;-68
2021/12/30 08:24:44;;;;;;;;;5.33;4.00;;;;;;;;5018252;28;45481;-68
2021/12/30 08:27:12;;;;;;;;;5.67;4.00;;;;;;;;5003993;28;45563;-69
2021/12/30 08:29:37;;;;;;;;;3.67;2.00;;;;;;;;5021728;28;46648;-68
2021/12/30 08:32:03;;;;;;;;;5.67;4.67;;;;;;;;5017249;28;45324;-68
2021/12/30 08:34:28;;;;;;;;;3.67;2.33;;;;;;;;5021262;28;45437;-69
2021/12/30 08:36:53;;;;;;;;;3.00;3.00;;;;;;;;5019035;28;45548;-69
2021/12/30 08:39:19;;;;;;;;;7.67;4.00;;;;;;;;5024822;28;45620;-68
2021/12/30 08:41:44;;;;;;;;;4.00;3.67;;;;;;;;5019974;28;45488;-68
2021/12/30 08:44:09;;;;;;;;;8.00;3.33;;;;;;;;5024007;28;45264;-70
2021/12/30 08:46:34;;;;;;;;;3.00;0.00;;;;;;;;5022021;28;45272;-69
2021/12/30 08:49:00;;;;;;;;;9.00;5.00;;;;;;;;5022048;28;46499;-68
2021/12/30 08:51:25;;;;;;;;;6.67;5.33;;;;;;;;5022509;28;45520;-68
2021/12/30 08:53:50;;;;;;;;;5.00;3.00;;;;;;;;5021185;28;45671;-68
2021/12/30 08:56:17;;;;;;;;;2.00;2.00;;;;;;;;5023619;28;45336;-69
2021/12/30 08:58:42;;;;;;;;;5.67;2.67;;;;;;;;5019106;28;47625;-69
2021/12/30 09:01:07;;;;;;;;;5.00;3.00;;;;;;;;5005007;28;45304;-69
2021/12/30 09:03:33;;;;;;;;;9.67;5.67;;;;;;;;5006798;28;45953;-69
2021/12/30 09:05:58;;;;;;;;;9.67;8.33;;;;;;;;5024453;28;45565;-69
2021/12/30 09:08:23;;;;;;;;;4.00;2.00;;;;;;;;5018914;28;45481;-69
2021/12/30 09:10:50;;;;;;;;;5.33;3.00;;;;;;;;5024685;28;45268;-69
2021/12/30 09:13:15;;;;;;;;;6.00;5.00;;;;;;;;5002489;28;45428;-69
2021/12/30 09:15:41;;;;;;;;;10.00;6.33;;;;;;;;5024319;28;45530;-69
2021/12/30 09:18:07;;;;;;;;;6.67;5.33;;;;;;;;5018596;28;46585;-68
2021/12/30 09:20:33;;;;;;;;;4.67;3.33;;;;;;;;5005233;28;45373;-67
2021/12/30 09:22:58;;;;;;;;;5.33;2.33;;;;;;;;4999364;28;45427;-67
2021/12/30 09:25:24;;;;;;;;;3.00;3.00;;;;;;;;5023749;28;45208;-67
2021/12/30 09:27:50;;;;;;;;;5.00;4.67;;;;;;;;5017208;28;45706;-67
2021/12/30 09:30:16;;;;;;;;;5.00;4.67;;;;;;;;5024323;28;45426;-67
2021/12/30 09:32:42;;;;;;;;;6.67;5.67;;;;;;;;5005854;28;45403;-67
2021/12/30 09:35:08;;;;;;;;;2.67;2.00;;;;;;;;5006853;28;45523;-67
2021/12/30 09:37:33;;;;;;;;;5.00;5.00;;;;;;;;5013420;28;46832;-67
2021/12/30 09:39:59;;;;;;;;;7.00;4.00;;;;;;;;5023247;28;45461;-67
2021/12/30 09:42:25;;;;;;;;;6.00;4.00;;;;;;;;5016321;28;45480;-67
2021/12/30 09:44:50;;;;;;;;;6.33;4.00;;;;;;;;5003748;28;45503;-67
2021/12/30 09:47:15;;;;;;;;;6.67;4.00;;;;;;;;5016761;28;45588;-67
2021/12/30 09:49:41;;;;;;;;;3.00;3.00;;;;;;;;5022679;28;45295;-67
2021/12/30 09:52:06;;;;;;;;;3.67;2.00;;;;;;;;5017009;28;45419;-67
2021/12/30 09:54:31;;;;;;;;;6.67;3.00;;;;;;;;5024584;28;45586;-67
2021/12/30 09:56:56;;;;;;;;;2.00;2.00;;;;;;;;5017679;28;47406;-66
2021/12/30 09:59:23;;;;;;;;;4.00;2.00;;;;;;;;5020010;28;45433;-67
2021/12/30 10:01:48;;;;;;;;;11.33;6.00;;;;;;;;5019280;28;45446;-67
2021/12/30 10:04:14;;;;;;;;;4.67;4.00;;;;;;;;5006050;28;45341;-66
2021/12/30 10:06:46;;;;;;;;;6.00;4.00;;;;;;;;5004189;28;47575;-68
2021/12/30 10:09:14;;;;;;;;;5.67;1.00;;;;;;;;5021876;28;45339;-67
2021/12/30 10:11:50;;;;;;;;;6.00;5.00;;;;;;;;5021324;28;45252;-67
2021/12/30 10:14:29;;;;;;;;;9.00;6.33;;;;;;;;5023220;28;45456;-68
2021/12/30 10:17:14;;;;;;;;;3.67;3.00;;;;;;;;5003784;28;48013;-67
2021/12/30 10:19:39;;;;;;;;;4.00;3.67;;;;;;;;5021980;28;45478;-67
2021/12/30 10:22:11;;;;;;;;;4.00;3.00;;;;;;;;5016061;28;45291;-67
2021/12/30 10:24:37;;;;;;;;;5.00;5.00;;;;;;;;4999349;28;45452;-67
2021/12/30 10:27:02;;;;;;;;;4.33;3.00;;;;;;;;5017270;28;46613;-68
2021/12/30 10:29:38;;;;;;;;;5.33;3.00;;;;;;;;5023470;28;45246;-68
2021/12/30 10:32:11;;;;;;;;;9.67;4.67;;;;;;;;5017460;28;45303;-69
2021/12/30 10:34:37;;;;;;;;;7.00;4.67;;;;;;;;5023570;28;45374;-68
2021/12/30 10:37:02;;;;;;;;;6.00;3.00;;;;;;;;5004782;28;47445;-67
2021/12/30 10:39:31;;;;;;;;;4.00;4.00;;;;;;;;5023409;28;45283;-68
2021/12/30 10:42:06;;;;;;;;;5.67;4.00;;;;;;;;5002154;28;45458;-68
2021/12/30 10:44:49;;;;;;;;;5.00;2.33;;;;;;;;5023311;28;45243;-67
2021/12/30 10:47:15;;;;;;;;;3.67;2.33;;;;;;;;5003471;28;48066;-68
2021/12/30 10:49:40;;;;;;;;;8.00;3.00;;;;;;;;5001791;28;45936;-69
2021/12/30 10:52:06;;;;;;;;;5.33;5.00;;;;;;;;5011234;28;45443;-67
2021/12/30 10:54:33;;;;;;;;;5.67;4.00;;;;;;;;5023469;28;45452;-67
2021/12/30 10:57:00;;;;;;;;;5.67;5.00;;;;;;;;5016150;28;45731;-71
2021/12/30 10:59:28;;;;;;;;;4.33;3.67;;;;;;;;5004919;28;45451;-71
2021/12/30 11:02:12;;;;;;;;;4.00;4.00;;;;;;;;5004955;28;45261;-74
2021/12/30 11:05:02;;;;;;;;;7.00;4.00;;;;;;;;5023084;28;45357;-71
2021/12/30 11:07:37;;;;;;;;;4.00;2.33;;;;;;;;4989272;28;48238;-68
2021/12/30 11:10:02;;;;;;;;;3.00;2.00;;;;;;;;5020402;28;45382;-68
2021/12/30 11:12:29;;;;;;;;;11.67;4.00;;;;;;;;5020044;28;45434;-68
2021/12/30 11:14:55;;;;;;;;;6.00;3.33;;;;;;;;5022111;28;45430;-69
2021/12/30 11:17:24;;;;;;;;;2.67;2.33;;;;;;;;5018014;28;46167;-68
2021/12/30 11:19:49;;;;;;;;;5.00;3.33;;;;;;;;5022657;28;45467;-68
2021/12/30 11:22:16;;;;;;;;;5.67;3.00;;;;;;;;5014177;28;45373;-68
2021/12/30 11:24:43;;;;;;;;;3.67;2.67;;;;;;;;5018507;28;45425;-69
2021/12/30 11:27:10;;;;;;;;;3.33;3.00;;;;;;;;5017041;28;47258;-68
2021/12/30 11:29:37;;;;;;;;;4.67;2.00;;;;;;;;5007052;28;45586;-68
2021/12/30 11:32:04;;;;;;;;;5.67;3.33;;;;;;;;5016543;28;45217;-68
2021/12/30 11:34:29;;;;;;;;;5.00;3.67;;;;;;;;5022427;28;45289;-68
2021/12/30 11:36:55;;;;;;;;;6.00;4.33;;;;;;;;5016321;28;46286;-68
2021/12/30 11:39:22;;;;;;;;;2.33;2.00;;;;;;;;5020897;28;45289;-68
2021/12/30 11:41:52;;;;;;;;;5.00;4.00;;;;;;;;5017531;28;45255;-69
2021/12/30 11:44:36;;;;;;;;;3.00;3.00;;;;;;;;5022226;28;45432;-69
2021/12/30 11:47:02;;;;;;;;;5.00;3.00;;;;;;;;5015616;28;46535;-69
2021/12/30 11:49:47;;;;;;;;;3.00;2.00;;;;;;;;5004002;28;45367;-68
2021/12/30 11:52:13;;;;;;;;;5.67;4.67;;;;;;;;5015441;28;45450;-69
2021/12/30 11:54:40;;;;;;;;;4.00;3.00;;;;;;;;5022729;28;45313;-68
2021/12/30 11:57:24;;;;;;;;;4.33;2.00;;;;;;;;5015847;28;45461;-68
2021/12/30 11:59:49;;;;;;;;;5.00;2.00;;;;;;;;5018234;28;45327;-68
2021/12/30 12:02:27;;;;;;;;;3.00;3.00;;;;;;;;5017516;28;45392;-68
2021/12/30 12:04:52;;;;;;;;;3.00;2.67;;;;;;;;5019519;28;45365;-68
2021/12/30 12:07:17;;;;;;;;;3.00;2.00;;;;;;;;5020221;28;45563;-70
2021/12/30 12:09:43;;;;;;;;;6.33;3.00;;;;;;;;5024089;28;45339;-68
2021/12/30 12:12:28;;;;;;;;;7.00;4.00;;;;;;;;5022983;28;45549;-69
2021/12/30 12:14:55;;;;;;;;;5.00;2.33;;;;;;;;5025313;28;45303;-69
2021/12/30 12:17:35;;;;;;;;;4.67;4.67;;;;;;;;5003100;28;47213;-69
2021/12/30 12:20:11;;;;;;;;;9.67;9.00;;;;;;;;5007820;28;45370;-69
2021/12/30 12:22:37;;;;;;;;;5.00;3.00;;;;;;;;5013761;28;45667;-70
2021/12/30 12:25:16;;;;;;;;;5.67;3.00;;;;;;;;5023859;28;45459;-70
2021/12/30 12:27:45;;;;;;;;;5.00;2.00;;;;;;;;5019657;28;45470;-68
2021/12/30 12:30:28;;;;;;;;;1.00;1.00;;;;;;;;5025206;28;45377;-70
2021/12/30 12:32:54;;;;;;;;;5.00;2.00;;;;;;;;5016746;28;45200;-71
2021/12/30 12:35:19;;;;;;;;;3.33;3.00;;;;;;;;5025743;28;45465;-69
2021/12/30 12:37:47;;;;;;;;;4.00;4.00;;;;;;;;5018877;28;45433;-69
2021/12/30 12:40:15;;;;;;;;;3.33;2.00;;;;;;;;5025797;28;45392;-68
2021/12/30 12:42:53;;;;;;;;;3.00;3.00;;;;;;;;5018807;28;45398;-69
2021/12/30 12:45:18;;;;;;;;;4.00;4.00;;;;;;;;5025578;28;45527;-70
2021/12/30 12:47:44;;;;;;;;;2.00;2.00;;;;;;;;5018354;28;45508;-69
2021/12/30 12:50:09;;;;;;;;;5.00;2.67;;;;;;;;5006866;28;45383;-70
2021/12/30 12:52:45;;;;;;;;;3.33;3.33;;;;;;;;5018680;28;45385;-71
2021/12/30 12:55:17;;;;;;;;;3.33;2.33;;;;;;;;5025006;28;45502;-71
2021/12/30 12:57:43;;;;;;;;;2.67;2.67;;;;;;;;5017986;28;46064;-71
2021/12/30 13:00:09;;;;;;;;;3.67;2.33;;;;;;;;5020411;28;45196;-71
2021/12/30 13:02:34;;;;;;;;;3.67;2.67;;;;;;;;5019799;28;45489;-71
2021/12/30 13:05:12;;;;;;;;;6.00;3.67;;;;;;;;5020439;28;45285;-71
2021/12/30 13:07:38;;;;;;;;;6.00;3.00;;;;;;;;5015365;28;46149;-71
2021/12/30 13:10:03;;;;;;;;;4.00;3.00;;;;;;;;5005223;28;45281;-68
2021/12/30 13:12:33;;;;;;;;;8.00;5.50;;;;;;;;5021024;28;45455;-70
2021/12/30 13:14:59;;;;;;;;;3.33;2.33;;;;;;;;5024388;28;45185;-71
2021/12/30 13:17:24;;;;;;;;;3.00;2.00;;;;;;;;5020504;28;45512;-71
2021/12/30 13:19:49;;;;;;;;;1.67;1.67;;;;;;;;5023805;28;45533;-71
2021/12/30 13:22:18;;;;;;;;;3.33;2.67;;;;;;;;5016354;28;45478;-71
2021/12/30 13:25:04;;;;;;;;;3.00;3.00;;;;;;;;5021141;28;45527;-71
2021/12/30 13:27:34;;;;;;;;;3.00;1.33;;;;;;;;5017006;28;47622;-71
2021/12/30 13:30:00;;;;;;;;;3.00;2.33;;;;;;;;5024085;28;45409;-71
2021/12/30 13:32:26;;;;;;;;;3.00;3.00;;;;;;;;5018575;28;45455;-72
2021/12/30 13:35:16;;;;;;;;;3.00;3.00;;;;;;;;5023498;28;45220;-72
2021/12/30 13:37:44;;;;;;;;;2.33;2.00;;;;;;;;5010359;28;45670;-71
2021/12/30 13:40:12;;;;;;;;;3.33;3.00;;;;;;;;5024350;28;45366;-71
2021/12/30 13:42:44;;;;;;;;;2.00;2.00;;;;;;;;5017849;28;45437;-71
2021/12/30 13:45:09;;;;;;;;;5.00;3.00;;;;;;;;5006263;28;45689;-68
2021/12/30 13:47:35;;;;;;;;;3.67;3.00;;;;;;;;5004823;28;46309;-68
2021/12/30 13:50:04;;;;;;;;;6.67;4.00;;;;;;;;5006152;28;45885;-70
2021/12/30 13:52:30;;;;;;;;;4.33;2.00;;;;;;;;5000276;28;45354;-70
2021/12/30 13:55:14;;;;;;;;;3.00;2.00;;;;;;;;5006370;28;45503;-67
2021/12/30 13:57:40;;;;;;;;;5.00;3.00;;;;;;;;5005325;28;47915;-67
2021/12/30 14:00:07;;;;;;;;;2.33;2.33;;;;;;;;5020242;28;45301;-68
2021/12/30 14:02:32;;;;;;;;;4.00;2.33;;;;;;;;5019408;28;45434;-68
2021/12/30 14:05:09;;;;;;;;;3.67;2.67;;;;;;;;5021176;28;45441;-68
2021/12/30 14:07:37;;;;;;;;;3.00;3.00;;;;;;;;5013734;28;46193;-68
2021/12/30 14:10:02;;;;;;;;;3.33;3.33;;;;;;;;5021801;28;45467;-69
2021/12/30 14:12:28;;;;;;;;;1.33;1.33;;;;;;;;5021235;28;45513;-69
2021/12/30 14:14:53;;;;;;;;;4.33;2.00;;;;;;;;5021844;28;45336;-69
2021/12/30 14:17:19;;;;;;;;;3.33;3.33;;;;;;;;5019403;28;46560;-69
2021/12/30 14:19:49;;;;;;;;;4.33;4.33;;;;;;;;5003027;28;45623;-68
2021/12/30 14:22:15;;;;;;;;;7.00;4.00;;;;;;;;5004075;28;45518;-70
2021/12/30 14:24:40;;;;;;;;;3.67;3.00;;;;;;;;5023632;28;45338;-70
2021/12/30 14:27:20;;;;;;;;;8.33;5.67;;;;;;;;5019154;28;45471;-69
2021/12/30 14:29:45;;;;;;;;;3.00;3.00;;;;;;;;5021968;28;45327;-68
2021/12/30 14:32:12;;;;;;;;;3.00;3.00;;;;;;;;5016423;28;45555;-69
2021/12/30 14:34:40;;;;;;;;;3.00;3.00;;;;;;;;5023337;28;45444;-69
2021/12/30 14:37:08;;;;;;;;;3.00;2.00;;;;;;;;5003509;28;47141;-69
2021/12/30 14:39:42;;;;;;;;;6.00;4.33;;;;;;;;5021393;28;45598;-68
2021/12/30 14:42:10;;;;;;;;;7.00;3.00;;;;;;;;5016925;28;45376;-68